Tajin Airport
MMPA : now visible

Airfield :











YOU CAN JOIN US ON...

 
LOGIN :

Register | Disclaimer

   EN    FR    IT 

 









Legend :    VFR   Marginal VFR   IFR   Intensive IFR   Very Intensive IFR
Visi :
Ceiling :
>= 8 km
>= 3000ft
5 to 8 km
1000 to 3000 ft
1500m to 5 km
500 to 1000 ft
800 to 1500m
200 to 500 ft
< 800m
< 200 ft
Symbols :   Thunderstorms  Fog  Heavy snow  Heavy precipitations  Wind > 20 kt






- Airport Elevation : 497 ft
- IATA code : PAZ


MMPA - Tajin

CURRENT METAR :
  • 222240Z 33012KT 5SM RA OVC020CB 30/28 A2988 RMK 8/9// RAB35 PRESRR

EXPIRED METARs :
  • 222144Z 36012KT 6SM OVC020CB 31/27 A2982 RMK 8/9// TSE10 HZY
  • 222042Z 02010KT 6SM OVC020CB 32/27 A2978 RMK SLP085 57030 926 8/9// TS OVHD CBRA SW

TAF AMD TAF MMPA
Valid from the 22 at 20:00 until the 23 at 18:00 UTC


221953Z 2220/2318 06010KT 6SM VC RA SCT020CB
TEMPO 2221/2301 4SM TSRA BKN015CB
FM230300 00000KT 5SM HZ SCT015 BKN200
FM230900 00000KT 4SM HZ BKN015
PROB40 2310/2314 3SM RA BKN010CB
MMFR FIR / North America



MET'MAP, your aeronautical weather chart ! - Copyright ORBIFLY December 2007 - Disclaimer

ORBIFLY MET'MAP TEAM :

Programming & Development : Alexandra Zaïnal
Concept & original design : Baudouin d'Aumeries
Assistance for programming : Marc-Olivier Méhu
Technical & hardware support : Manuel Goepfert

Contact : metmap@orbifly.com




SOURCES & CREDITS :

   NOAA       Earth
Advisory